createdAt,value
2018-07-02T00:02:01.140Z,64.20
2018-07-02T00:04:29.304Z,64.30
2018-07-02T00:07:08.694Z,64.40
2018-07-02T00:09:36.892Z,64.50
2018-07-02T00:12:05.906Z,65.40
2018-07-02T00:14:34.064Z,65.00
2018-07-02T00:17:02.206Z,65.50
2018-07-02T00:19:30.338Z,65.40
2018-07-02T00:21:58.478Z,65.70
2018-07-02T00:24:26.594Z,66.10
2018-07-02T00:26:54.747Z,66.40
2018-07-02T00:29:22.934Z,66.10
2018-07-02T00:31:51.133Z,66.70
2018-07-02T00:34:19.242Z,67.10
2018-07-02T00:36:47.421Z,67.40
2018-07-02T00:39:15.535Z,67.60
2018-07-02T00:41:44.119Z,67.70
2018-07-02T00:44:12.798Z,67.70
2018-07-02T00:46:40.932Z,68.10
2018-07-02T00:49:09.057Z,68.00
2018-07-02T00:51:37.336Z,68.10
2018-07-02T00:54:05.564Z,68.50
2018-07-02T00:56:33.775Z,68.70
2018-07-02T00:59:01.935Z,69.20
2018-07-02T01:01:30.106Z,69.30
2018-07-02T01:03:59.351Z,69.60
2018-07-02T01:06:27.486Z,69.80
2018-07-02T01:08:55.693Z,70.10
2018-07-02T01:11:23.822Z,69.50
2018-07-02T01:13:52.587Z,69.50
2018-07-02T01:16:20.758Z,69.20
2018-07-02T01:18:49.789Z,69.70
2018-07-02T01:21:18.681Z,69.50
2018-07-02T01:23:46.831Z,69.90
2018-07-02T01:26:16.065Z,69.40
2018-07-02T01:28:44.492Z,69.30
2018-07-02T01:31:13.162Z,70.30
2018-07-02T01:33:41.390Z,70.00
2018-07-02T01:36:09.587Z,69.80
2018-07-02T01:38:37.740Z,69.70
2018-07-02T01:41:05.876Z,69.80
2018-07-02T01:43:34.463Z,69.70
2018-07-02T01:48:30.883Z,70.20
2018-07-02T01:51:05.503Z,70.40
2018-07-02T01:53:33.675Z,69.40
2018-07-02T01:56:01.813Z,69.80
2018-07-02T01:58:29.969Z,70.20
2018-07-02T02:00:58.075Z,70.30
2018-07-02T02:03:26.211Z,70.40
2018-07-02T02:05:54.297Z,70.10
2018-07-02T02:08:22.450Z,70.10
2018-07-02T02:10:50.575Z,70.00
2018-07-02T02:13:18.706Z,70.30
2018-07-02T02:15:46.822Z,70.90
2018-07-02T02:18:14.991Z,70.40
2018-07-02T02:20:43.350Z,70.40
2018-07-02T02:23:11.479Z,70.60
2018-07-02T02:25:39.682Z,70.80
2018-07-02T02:28:07.824Z,71.40
2018-07-02T02:30:35.967Z,71.90
2018-07-02T02:33:04.123Z,71.60
2018-07-02T02:35:32.283Z,71.90
2018-07-02T02:38:00.465Z,71.70
2018-07-02T02:40:28.715Z,72.30
2018-07-02T02:42:56.853Z,71.90
2018-07-02T02:45:24.957Z,72.00
2018-07-02T02:47:53.077Z,72.10
2018-07-02T02:50:22.146Z,72.20
2018-07-02T02:52:50.283Z,72.50
2018-07-02T02:55:18.583Z,73.00
2018-07-02T02:57:46.690Z,73.10
2018-07-02T03:00:14.839Z,73.00
2018-07-02T03:02:42.974Z,73.70
2018-07-02T03:05:11.099Z,73.20
2018-07-02T03:07:39.242Z,73.50
2018-07-02T03:10:07.386Z,73.80
2018-07-02T03:12:35.549Z,73.80
2018-07-02T03:15:03.758Z,74.10
2018-07-02T03:17:31.894Z,74.30
2018-07-02T03:20:00.134Z,74.50
2018-07-02T03:22:28.283Z,74.70
2018-07-02T03:24:56.457Z,73.90
2018-07-02T03:27:24.588Z,74.10
2018-07-02T03:29:52.740Z,74.60
2018-07-02T03:32:20.887Z,74.00
2018-07-02T03:34:49.051Z,74.40
2018-07-02T03:37:17.454Z,74.60
2018-07-02T03:39:45.634Z,74.90
2018-07-02T03:42:13.798Z,74.50
2018-07-02T03:44:41.983Z,73.70
2018-07-02T03:47:10.137Z,73.90
2018-07-02T03:49:38.276Z,74.80
2018-07-02T03:52:06.441Z,74.60
2018-07-02T03:54:34.586Z,74.50
2018-07-02T03:57:02.761Z,74.50
2018-07-02T03:59:30.972Z,74.30
2018-07-02T04:01:59.224Z,73.50
2018-07-02T04:04:27.369Z,74.20
2018-07-02T04:06:55.552Z,74.30
2018-07-02T04:09:23.661Z,73.70
2018-07-02T04:11:51.811Z,74.20
2018-07-02T04:14:19.983Z,74.60
2018-07-02T04:16:48.136Z,74.00
2018-07-02T04:19:16.282Z,74.70
2018-07-02T04:21:44.480Z,74.80
2018-07-02T04:24:12.838Z,75.60
2018-07-02T04:26:41.802Z,75.50
2018-07-02T04:29:11.817Z,75.90
2018-07-02T04:31:39.967Z,75.80
2018-07-02T04:34:08.131Z,76.00
2018-07-02T04:36:36.450Z,75.80
2018-07-02T04:39:07.172Z,76.00
2018-07-02T04:41:35.503Z,76.00
2018-07-02T04:44:03.708Z,75.70
2018-07-02T04:46:31.882Z,75.20
2018-07-02T04:49:00.062Z,75.30
2018-07-02T04:51:28.219Z,75.30
2018-07-02T04:53:56.341Z,75.30
2018-07-02T04:56:24.490Z,74.60
2018-07-02T04:58:52.745Z,73.80
2018-07-02T05:01:20.877Z,73.70
2018-07-02T05:03:49.013Z,73.80
2018-07-02T05:06:17.169Z,72.80
2018-07-02T05:08:45.310Z,73.40
2018-07-02T05:11:13.546Z,73.10
2018-07-02T05:13:41.698Z,72.80
2018-07-02T05:16:09.878Z,72.20
2018-07-02T05:18:38.052Z,70.60
2018-07-02T05:21:06.266Z,71.60
2018-07-02T05:23:34.583Z,71.60
2018-07-02T05:26:02.783Z,71.50
2018-07-02T05:28:30.915Z,69.50
2018-07-02T05:30:59.045Z,69.70
2018-07-02T05:33:27.185Z,70.60
2018-07-02T05:35:55.341Z,70.60
2018-07-02T05:38:23.492Z,69.90
2018-07-02T05:40:51.594Z,68.30
2018-07-02T05:43:19.737Z,67.70
2018-07-02T05:45:47.850Z,68.10
2018-07-02T05:48:15.980Z,66.60
2018-07-02T05:50:44.127Z,66.90
2018-07-02T05:53:12.224Z,68.10
2018-07-02T05:55:40.933Z,64.60
2018-07-02T05:58:09.158Z,64.50
2018-07-02T06:00:38.498Z,65.30
2018-07-02T06:03:06.936Z,63.70
2018-07-02T06:08:03.266Z,63.90
2018-07-02T06:10:31.264Z,61.90
2018-07-02T06:12:59.383Z,63.20
2018-07-02T06:15:27.717Z,63.20
2018-07-02T06:17:55.880Z,63.10
2018-07-02T06:20:24.121Z,62.40
2018-07-02T06:22:52.269Z,60.60
2018-07-02T06:25:20.409Z,60.80
2018-07-02T06:27:48.578Z,64.60
2018-07-02T06:30:16.708Z,63.40
2018-07-02T06:32:44.819Z,59.70
2018-07-02T06:35:12.933Z,58.50
2018-07-02T06:37:41.061Z,59.00
2018-07-02T06:40:09.249Z,60.20
2018-07-02T06:42:37.426Z,59.50
2018-07-02T06:45:05.611Z,59.30
2018-07-02T06:47:33.808Z,58.00
2018-07-02T06:50:01.977Z,58.10
2018-07-02T06:52:30.142Z,58.00
2018-07-02T06:54:58.286Z,56.30
2018-07-02T06:57:26.393Z,57.50
2018-07-02T06:59:54.541Z,57.60
2018-07-02T07:02:22.654Z,57.20
2018-07-02T07:04:50.787Z,56.00
2018-07-02T07:07:18.901Z,55.30
2018-07-02T07:09:47.078Z,57.10
2018-07-02T07:12:15.214Z,57.70
2018-07-02T07:14:43.359Z,56.90
2018-07-02T07:17:11.500Z,57.00
2018-07-02T07:19:39.671Z,58.10
2018-07-02T07:22:07.853Z,56.50
2018-07-02T07:24:36.106Z,57.00
2018-07-02T07:27:04.368Z,56.70
2018-07-02T07:29:32.522Z,54.60
2018-07-02T07:32:00.658Z,55.50
2018-07-02T07:34:28.834Z,55.00
2018-07-02T07:36:56.989Z,54.70
2018-07-02T07:39:25.184Z,56.20
2018-07-02T07:41:53.330Z,56.50
2018-07-02T07:44:21.446Z,55.20
2018-07-02T07:46:49.571Z,55.70
2018-07-02T07:49:17.730Z,54.60
2018-07-02T07:51:45.907Z,55.00
2018-07-02T07:54:14.487Z,53.80
2018-07-02T07:56:42.679Z,55.10
2018-07-02T07:59:10.955Z,53.90
2018-07-02T08:01:39.154Z,53.70
2018-07-02T08:04:07.392Z,52.90
2018-07-02T08:06:35.698Z,54.70
2018-07-02T08:09:06.099Z,55.00
2018-07-02T08:11:34.274Z,53.20
2018-07-02T08:14:02.506Z,55.00
2018-07-02T08:16:30.751Z,55.30
2018-07-02T08:18:58.883Z,54.40
2018-07-02T08:21:26.994Z,55.50
2018-07-02T08:23:55.156Z,54.90
2018-07-02T08:26:23.350Z,54.50
2018-07-02T08:28:51.482Z,54.80
2018-07-02T08:31:20.225Z,54.70
2018-07-02T08:33:48.422Z,53.50
2018-07-02T08:36:17.215Z,52.10
2018-07-02T08:38:45.482Z,52.80
2018-07-02T08:41:13.605Z,54.50
2018-07-02T08:43:41.718Z,53.70
2018-07-02T08:46:09.986Z,55.00
2018-07-02T08:48:38.271Z,53.60
2018-07-02T08:51:06.631Z,52.50
2018-07-02T08:53:34.810Z,53.00
2018-07-02T08:56:03.021Z,52.60
2018-07-02T08:58:31.189Z,53.20
2018-07-02T09:00:59.315Z,51.20
2018-07-02T09:03:27.898Z,50.50
2018-07-02T09:05:56.047Z,52.20
2018-07-02T09:08:24.228Z,51.80
2018-07-02T09:10:53.271Z,50.90
2018-07-02T09:13:21.458Z,50.30
2018-07-02T09:15:50.633Z,50.20
2018-07-02T09:18:19.891Z,50.40
2018-07-02T09:20:48.087Z,49.70
2018-07-02T09:26:05.541Z,50.10
2018-07-02T09:31:34.291Z,49.70
2018-07-02T09:34:06.312Z,47.60
2018-07-02T09:36:36.623Z,47.90
2018-07-02T09:39:08.914Z,45.80
2018-07-02T09:41:37.316Z,47.30
2018-07-02T09:44:06.772Z,47.90
2018-07-02T09:46:35.741Z,47.40
2018-07-02T09:49:04.237Z,47.00
2018-07-02T09:51:32.788Z,47.70
2018-07-02T09:54:01.351Z,45.90
2018-07-02T09:56:33.384Z,47.10
2018-07-02T09:59:07.187Z,47.50
2018-07-02T10:01:37.079Z,46.70
2018-07-02T10:04:08.203Z,42.00
2018-07-02T10:06:38.110Z,43.80
2018-07-02T10:09:11.461Z,42.50
2018-07-02T10:11:40.056Z,43.80
2018-07-02T10:14:26.403Z,43.60
2018-07-02T10:16:54.538Z,43.70
2018-07-02T10:19:22.757Z,42.20
2018-07-02T10:21:50.995Z,45.80
2018-07-02T10:24:19.277Z,45.10
2018-07-02T10:26:50.471Z,44.80
2018-07-02T10:29:30.274Z,44.90
2018-07-02T10:31:58.467Z,44.90
2018-07-02T10:34:26.979Z,41.60
2018-07-02T10:39:47.033Z,44.20
2018-07-02T10:42:15.410Z,42.70
2018-07-02T10:44:43.524Z,45.00
2018-07-02T10:47:11.768Z,44.90
2018-07-02T10:49:39.937Z,44.30
2018-07-02T10:52:20.763Z,42.80
2018-07-02T10:54:49.090Z,45.00
2018-07-02T10:57:17.310Z,43.30
2018-07-02T10:59:45.457Z,43.90
2018-07-02T11:02:13.623Z,44.50
2018-07-02T11:04:41.781Z,44.10
2018-07-02T11:07:09.925Z,44.90
2018-07-02T11:09:38.082Z,41.40
2018-07-02T11:12:06.519Z,44.40
2018-07-02T11:14:34.733Z,44.40
2018-07-02T11:17:02.884Z,43.50
2018-07-02T11:19:31.352Z,43.60
2018-07-02T11:21:59.515Z,41.80
2018-07-02T11:24:27.670Z,41.80
2018-07-02T11:26:55.992Z,43.60
2018-07-02T11:29:24.181Z,44.00
2018-07-02T11:31:52.431Z,43.50
2018-07-02T11:37:19.845Z,40.10
2018-07-02T11:39:47.969Z,42.40
2018-07-02T11:42:16.150Z,44.00
2018-07-02T11:44:44.385Z,43.80
2018-07-02T11:47:12.593Z,43.00
2018-07-02T11:49:40.866Z,43.30
2018-07-02T11:52:09.217Z,43.00
2018-07-02T11:54:44.134Z,42.40
2018-07-02T11:57:23.388Z,42.90
2018-07-02T11:59:51.611Z,43.20
2018-07-02T12:02:19.943Z,42.20
2018-07-02T12:04:48.175Z,42.20
2018-07-02T12:07:16.314Z,43.30
2018-07-02T12:09:45.067Z,42.70
2018-07-02T12:12:13.267Z,43.10
2018-07-02T12:14:41.404Z,43.20
2018-07-02T12:17:09.563Z,43.20
2018-07-02T12:19:37.753Z,41.90
2018-07-02T12:22:06.427Z,42.50
2018-07-02T12:24:35.213Z,42.40
2018-07-02T12:27:03.383Z,43.50
2018-07-02T12:32:06.183Z,41.60
2018-07-02T12:34:34.396Z,43.30
2018-07-02T12:37:03.509Z,43.10
2018-07-02T12:39:31.857Z,43.60
2018-07-02T12:42:00.560Z,42.60
2018-07-02T12:44:28.719Z,41.90
2018-07-02T12:46:57.132Z,42.20
2018-07-02T12:49:25.346Z,40.90
2018-07-02T12:51:53.566Z,41.40
2018-07-02T12:54:24.781Z,44.30
2018-07-02T12:56:52.962Z,43.10
2018-07-02T12:59:21.762Z,43.70
2018-07-02T13:01:57.211Z,42.80
2018-07-02T13:04:26.296Z,42.20
2018-07-02T13:06:54.580Z,43.40
2018-07-02T13:09:22.759Z,44.10
2018-07-02T13:11:51.000Z,44.10
2018-07-02T13:14:19.411Z,43.00
2018-07-02T13:16:48.386Z,43.60
2018-07-02T13:19:17.026Z,43.00
2018-07-02T13:21:45.800Z,42.50
2018-07-02T13:24:23.267Z,42.20
2018-07-02T13:26:56.085Z,42.20
2018-07-02T13:29:42.459Z,42.30
2018-07-02T13:34:52.854Z,42.70
2018-07-02T13:37:21.215Z,43.70
2018-07-02T13:40:48.561Z,43.60
2018-07-02T13:43:16.938Z,42.00
2018-07-02T13:45:54.777Z,42.90
2018-07-02T13:48:23.188Z,43.10
2018-07-02T13:50:51.443Z,43.60
2018-07-02T13:53:19.657Z,43.20
2018-07-02T13:55:47.775Z,44.00
2018-07-02T13:58:16.035Z,43.00
2018-07-02T14:00:44.253Z,43.80
2018-07-02T14:03:12.599Z,42.60
2018-07-02T14:05:50.087Z,42.40
2018-07-02T14:08:18.639Z,42.90
2018-07-02T14:10:47.157Z,42.90
2018-07-02T14:13:15.472Z,43.40
2018-07-02T14:15:43.617Z,43.70
2018-07-02T14:18:11.849Z,43.30
2018-07-02T14:20:40.011Z,44.20
2018-07-02T14:23:08.236Z,43.70
2018-07-02T14:25:36.463Z,43.10
2018-07-02T14:28:04.632Z,43.10
2018-07-02T14:30:32.865Z,42.10
2018-07-02T14:33:01.384Z,42.50
2018-07-02T14:35:29.437Z,42.30
2018-07-02T14:37:57.564Z,42.80
2018-07-02T14:40:25.778Z,43.90
2018-07-02T14:43:00.627Z,43.10
2018-07-02T14:45:28.887Z,44.00
2018-07-02T14:47:56.967Z,44.30
2018-07-02T14:50:25.446Z,43.20
2018-07-02T14:52:53.640Z,44.50
2018-07-02T14:55:21.900Z,43.20
2018-07-02T14:57:50.050Z,44.20
2018-07-02T15:00:18.182Z,42.80
2018-07-02T15:02:46.326Z,43.20
2018-07-02T15:05:16.566Z,43.90
2018-07-02T15:07:44.717Z,43.70
2018-07-02T15:10:12.877Z,44.90
2018-07-02T15:12:42.389Z,44.00
2018-07-02T15:15:11.621Z,43.80
2018-07-02T15:17:41.661Z,44.20
2018-07-02T15:20:11.512Z,44.00
2018-07-02T15:22:39.992Z,43.60
2018-07-02T15:25:08.664Z,43.40
2018-07-02T15:27:37.091Z,43.50
2018-07-02T15:30:05.822Z,44.20
2018-07-02T15:32:34.601Z,44.20
2018-07-02T15:35:03.697Z,44.50
2018-07-02T15:37:32.584Z,44.10
2018-07-02T15:40:01.628Z,44.60
2018-07-02T15:42:30.174Z,44.40
2018-07-02T15:44:59.524Z,44.00
2018-07-02T15:47:28.058Z,44.40
2018-07-02T15:49:56.933Z,44.40
2018-07-02T15:52:25.830Z,44.40
2018-07-02T15:54:55.251Z,44.10
2018-07-02T15:57:23.986Z,43.10
2018-07-02T15:59:52.897Z,44.30
2018-07-02T16:02:21.404Z,43.80
2018-07-02T16:04:50.279Z,44.10
2018-07-02T16:07:19.542Z,44.40
2018-07-02T16:09:48.232Z,44.40
2018-07-02T16:12:17.007Z,45.00
2018-07-02T16:14:45.537Z,44.60
2018-07-02T16:17:14.804Z,45.10
2018-07-02T16:19:44.202Z,44.50
2018-07-02T16:22:13.861Z,44.20
2018-07-02T16:24:42.501Z,44.90
2018-07-02T16:27:11.029Z,44.40
2018-07-02T16:29:41.414Z,45.50
2018-07-02T16:32:10.296Z,44.50
2018-07-02T16:34:39.901Z,44.80
2018-07-02T16:37:08.556Z,45.30
2018-07-02T16:39:38.533Z,44.80
2018-07-02T16:42:09.016Z,44.60
2018-07-02T16:44:37.723Z,45.40
2018-07-02T16:47:06.490Z,45.40
2018-07-02T16:49:35.337Z,45.10
2018-07-02T16:52:04.148Z,45.20
2018-07-02T16:54:33.220Z,44.50
2018-07-02T16:57:02.015Z,45.20
2018-07-02T16:59:31.790Z,44.20
2018-07-02T17:02:01.854Z,45.20
2018-07-02T17:04:30.426Z,45.50
2018-07-02T17:06:59.415Z,46.30
2018-07-02T17:09:28.060Z,45.20
2018-07-02T17:14:26.376Z,46.00
2018-07-02T17:16:55.366Z,45.10
2018-07-02T17:19:24.449Z,46.10
2018-07-02T17:21:53.755Z,46.50
2018-07-02T17:24:24.567Z,46.00
2018-07-02T17:26:55.651Z,46.50
2018-07-02T17:29:25.453Z,46.80
2018-07-02T17:34:24.248Z,46.30
2018-07-02T17:36:53.270Z,46.30
2018-07-02T17:39:23.432Z,46.20
2018-07-02T17:41:52.763Z,46.80
2018-07-02T17:44:23.424Z,46.20
2018-07-02T17:46:53.078Z,46.30
2018-07-02T17:49:23.498Z,46.10
2018-07-02T17:51:52.456Z,46.10
2018-07-02T17:54:23.574Z,46.90
2018-07-02T17:56:52.579Z,46.90
2018-07-02T17:59:22.026Z,47.40
2018-07-02T18:01:51.309Z,47.80
2018-07-02T18:04:22.265Z,47.10
2018-07-02T18:06:51.974Z,46.20
2018-07-02T18:09:21.227Z,47.80
2018-07-02T18:11:49.877Z,47.30
2018-07-02T18:14:18.908Z,47.70
2018-07-02T18:16:48.226Z,48.10
2018-07-02T18:19:17.177Z,48.10
2018-07-02T18:21:45.694Z,48.10
2018-07-02T18:24:16.310Z,48.10
2018-07-02T18:26:45.460Z,48.70
2018-07-02T18:29:14.023Z,48.20
2018-07-02T18:31:43.513Z,48.40
2018-07-02T18:34:12.334Z,48.70
2018-07-02T18:36:41.285Z,48.60
2018-07-02T18:39:11.735Z,49.40
2018-07-02T18:41:41.960Z,49.40
2018-07-02T18:46:39.175Z,49.00
2018-07-02T18:49:08.188Z,49.70
2018-07-02T18:51:37.065Z,50.00
2018-07-02T18:54:06.129Z,50.10
2018-07-02T18:56:34.983Z,49.60
2018-07-02T18:59:04.269Z,50.00
2018-07-02T19:01:33.291Z,50.20
2018-07-02T19:04:02.387Z,50.70
2018-07-02T19:06:31.890Z,50.20
2018-07-02T19:09:01.195Z,51.20
2018-07-02T19:11:30.285Z,51.20
2018-07-02T19:13:59.752Z,50.80
2018-07-02T19:16:28.424Z,51.70
2018-07-02T19:18:57.046Z,51.60
2018-07-02T19:21:25.527Z,52.50
2018-07-02T19:23:54.299Z,52.10
2018-07-02T19:26:23.490Z,52.60
2018-07-02T19:28:52.310Z,53.00
2018-07-02T19:31:21.226Z,53.30
2018-07-02T19:33:50.305Z,54.00
2018-07-02T19:36:18.418Z,53.70
2018-07-02T19:38:46.592Z,53.30
2018-07-02T19:41:14.740Z,54.30
2018-07-02T19:43:43.015Z,54.10
2018-07-02T19:46:11.154Z,54.50
2018-07-02T19:48:39.283Z,55.30
2018-07-02T19:51:07.454Z,55.80
2018-07-02T19:53:35.635Z,56.10
2018-07-02T19:56:03.801Z,56.00
2018-07-02T19:58:31.986Z,56.30
2018-07-02T20:01:00.228Z,56.60
2018-07-02T20:03:28.328Z,56.70
2018-07-02T20:05:56.518Z,57.50
2018-07-02T20:08:24.682Z,57.90
2018-07-02T20:10:52.845Z,58.40
2018-07-02T20:13:20.987Z,58.20
2018-07-02T20:15:49.149Z,57.90
2018-07-02T20:18:17.302Z,58.10
2018-07-02T20:20:46.621Z,58.60
2018-07-02T20:23:14.804Z,59.20
2018-07-02T20:25:42.969Z,59.20
2018-07-02T20:28:12.112Z,59.80
2018-07-02T20:30:40.276Z,59.30
2018-07-02T20:33:08.436Z,58.80
2018-07-02T20:35:36.627Z,59.50
2018-07-02T20:38:05.927Z,59.90
2018-07-02T20:40:34.070Z,60.60
2018-07-02T20:43:02.206Z,61.30
2018-07-02T20:45:30.469Z,60.50
2018-07-02T20:47:58.624Z,61.60
2018-07-02T20:50:26.744Z,61.30
2018-07-02T20:52:55.337Z,61.10
2018-07-02T20:55:23.460Z,61.60
2018-07-02T20:57:51.732Z,61.00
2018-07-02T21:00:19.852Z,60.90
2018-07-02T21:02:47.976Z,61.00
2018-07-02T21:05:16.147Z,61.50
2018-07-02T21:07:45.290Z,61.60
2018-07-02T21:10:13.488Z,61.70
2018-07-02T21:12:41.590Z,62.00
2018-07-02T21:15:12.321Z,61.90
2018-07-02T21:17:40.467Z,62.30
2018-07-02T21:20:08.571Z,62.50
2018-07-02T21:22:36.742Z,63.10
2018-07-02T21:25:04.885Z,63.30
2018-07-02T21:27:33.013Z,63.70
2018-07-02T21:30:01.606Z,64.30
2018-07-02T21:32:29.761Z,63.80
2018-07-02T21:34:57.937Z,63.80
2018-07-02T21:37:26.123Z,64.00
2018-07-02T21:39:54.290Z,64.40
2018-07-02T21:42:22.423Z,64.50
2018-07-02T21:44:50.560Z,65.00
2018-07-02T21:47:18.692Z,65.20
2018-07-02T21:49:46.860Z,65.80
2018-07-02T21:52:14.992Z,66.10
2018-07-02T21:54:43.109Z,66.10
2018-07-02T21:57:11.306Z,66.20
2018-07-02T21:59:39.446Z,66.40
2018-07-02T22:02:07.603Z,66.90
2018-07-02T22:04:35.750Z,66.90
2018-07-02T22:07:03.924Z,66.70
2018-07-02T22:09:32.080Z,67.20
2018-07-02T22:12:00.197Z,67.00
2018-07-02T22:14:28.360Z,67.20
2018-07-02T22:16:56.591Z,67.30
2018-07-02T22:19:24.750Z,67.90
2018-07-02T22:21:53.268Z,68.00
2018-07-02T22:24:21.399Z,68.20
2018-07-02T22:26:49.537Z,68.00
2018-07-02T22:29:17.698Z,68.10
2018-07-02T22:31:45.861Z,68.30
2018-07-02T22:34:13.981Z,68.30
2018-07-02T22:36:42.112Z,68.70
2018-07-02T22:39:11.121Z,68.40
2018-07-02T22:41:39.253Z,68.20
2018-07-02T22:44:08.291Z,68.50
2018-07-02T22:46:36.499Z,68.50
2018-07-02T22:49:04.749Z,68.60
2018-07-02T22:51:32.923Z,69.10
2018-07-02T22:54:01.088Z,69.30
2018-07-02T22:56:29.238Z,69.40
2018-07-02T22:58:57.423Z,69.50
2018-07-02T23:01:25.664Z,69.70
2018-07-02T23:03:53.826Z,69.10
2018-07-02T23:06:22.694Z,69.40
2018-07-02T23:08:50.891Z,68.90
2018-07-02T23:11:19.022Z,69.20
2018-07-02T23:13:47.187Z,69.70
2018-07-02T23:16:15.321Z,69.00
2018-07-02T23:18:43.479Z,69.70
2018-07-02T23:21:11.602Z,70.00
2018-07-02T23:23:39.730Z,69.60
2018-07-02T23:26:07.889Z,70.20
2018-07-02T23:28:36.101Z,70.10
2018-07-02T23:31:04.238Z,70.20
2018-07-02T23:33:32.423Z,70.40
2018-07-02T23:36:00.538Z,69.70
2018-07-02T23:38:28.738Z,70.20
2018-07-02T23:40:56.957Z,70.90
2018-07-02T23:43:25.098Z,71.10
2018-07-02T23:45:53.234Z,70.90
2018-07-02T23:48:21.364Z,70.90
2018-07-02T23:50:49.506Z,70.90
2018-07-02T23:53:17.685Z,70.90
2018-07-02T23:55:45.797Z,70.90
2018-07-02T23:58:13.949Z,71.10
